Terminal Aerodrome Forecast
Issued by NWS

Home | Current Version | Previous Version | Graphics & Text | Print | Product List | Glossary On
Versions: 1 2 3 4 5 6 7 8 9 10 11 12 13 14 15 16 17 18 19
000
FTUS43 KGRB 220201 AAA
TAFAUW
TAF AMD
KAUW 220201Z 2202/2224 32008KT P6SM SCT035
      TEMPO 2203/2205 BKN035
     FM220900 29005KT P6SM SKC
     FM221600 24008KT P6SM BKN200
     FM222200 20006KT P6SM BKN100=

USA.gov is the U.S. government's official web portal to all federal, state and local government web resources and services.